createdAt,value
2022-10-14T00:00:52.866Z,96139.47
2022-10-14T00:03:20.520Z,96148.72
2022-10-14T00:05:49.126Z,96162.69
2022-10-14T00:08:16.812Z,96140.97
2022-10-14T00:10:46.002Z,96022.38
2022-10-14T00:13:13.797Z,96154.06
2022-10-14T00:15:42.423Z,96134.31
2022-10-14T00:18:10.833Z,96146.97
2022-10-14T00:20:38.525Z,96143.56
2022-10-14T00:23:06.370Z,96133.03
2022-10-14T00:25:38.943Z,96142.56
2022-10-14T00:28:07.951Z,96142.25
2022-10-14T00:30:35.812Z,96136.97
2022-10-14T00:33:04.220Z,96119.72
2022-10-14T00:35:32.859Z,96106.41
2022-10-14T00:38:00.890Z,96111.13
2022-10-14T00:40:28.655Z,96136.81
2022-10-14T00:42:56.322Z,96130.53
2022-10-14T00:45:26.946Z,96095.13
2022-10-14T00:47:55.823Z,96060.66
2022-10-14T00:50:24.215Z,96133.69
2022-10-14T00:52:52.598Z,96135.53
2022-10-14T00:55:20.727Z,96129.09
2022-10-14T00:57:48.454Z,96134.81
2022-10-14T01:00:19.577Z,96132.19
2022-10-14T01:02:50.231Z,96102.06
2022-10-14T01:05:20.095Z,96131.44
2022-10-14T01:08:06.617Z,96124.91
2022-10-14T01:10:40.772Z,96134.09
2022-10-14T01:13:26.452Z,96043.09
2022-10-14T01:16:03.823Z,96133.38
2022-10-14T01:18:49.115Z,96132.09
2022-10-14T01:21:22.467Z,96023.69
2022-10-14T01:24:21.036Z,96106.28
2022-10-14T01:27:12.730Z,96112.53
2022-10-14T01:30:02.139Z,96120.38
2022-10-14T01:32:33.488Z,96125.31
2022-10-14T01:35:11.392Z,95994.94
2022-10-14T01:37:47.149Z,96126.53
2022-10-14T01:40:22.344Z,96127.69
2022-10-14T01:42:51.260Z,96130.84
2022-10-14T01:45:22.793Z,96122.81
2022-10-14T01:47:52.420Z,96121.25
2022-10-14T01:50:23.566Z,96115.59
2022-10-14T01:52:56.705Z,96118.75
2022-10-14T01:55:27.001Z,96085.13
2022-10-14T01:57:58.636Z,96099.88
2022-10-14T02:00:28.040Z,96124.13
2022-10-14T02:02:55.792Z,96118.41
2022-10-14T02:05:29.533Z,96023.25
2022-10-14T02:08:04.286Z,96014.38
2022-10-14T02:10:47.638Z,96133.69
2022-10-14T02:13:30.224Z,96138.41
2022-10-14T02:16:11.075Z,96128.97
2022-10-14T02:18:42.257Z,96141.69
2022-10-14T02:21:22.186Z,96137.47
2022-10-14T02:23:55.935Z,96164.72
2022-10-14T02:26:25.589Z,96127.88
2022-10-14T02:28:54.643Z,96142.03
2022-10-14T02:31:25.932Z,96133.09
2022-10-14T02:33:58.124Z,96132.03
2022-10-14T02:36:27.998Z,96134.44
2022-10-14T02:38:58.618Z,96078.63
2022-10-14T02:41:31.172Z,96142.91
2022-10-14T02:44:00.957Z,96140.31
2022-10-14T02:46:30.446Z,96145.38
2022-10-14T02:48:58.152Z,96141.38
2022-10-14T02:51:26.052Z,96137.66
2022-10-14T02:53:53.721Z,96135.31
2022-10-14T02:56:21.440Z,96117.47
2022-10-14T02:58:49.099Z,96129.50
2022-10-14T03:01:16.955Z,96143.25
2022-10-14T03:03:46.387Z,96054.06
2022-10-14T03:06:14.118Z,96136.38
2022-10-14T03:08:42.114Z,96134.28
2022-10-14T03:11:10.172Z,96116.78
2022-10-14T03:13:37.969Z,96135.88
2022-10-14T03:16:06.470Z,96136.94
2022-10-14T03:18:40.019Z,96136.38
2022-10-14T03:21:19.490Z,96141.88
2022-10-14T03:23:48.830Z,96140.53
2022-10-14T03:26:16.485Z,96077.78
2022-10-14T03:28:47.394Z,96131.06
2022-10-14T03:31:20.872Z,96128.44
2022-10-14T03:34:06.678Z,96134.59
2022-10-14T03:36:37.532Z,96131.94
2022-10-14T03:39:06.113Z,96056.06
2022-10-14T03:41:45.546Z,96082.38
2022-10-14T03:44:16.900Z,96125.41
2022-10-14T03:47:04.711Z,96131.50
2022-10-14T03:49:34.082Z,96127.50
2022-10-14T03:52:11.206Z,96126.47
2022-10-14T03:54:40.813Z,96105.94
2022-10-14T03:57:08.869Z,96123.56
2022-10-14T03:59:43.297Z,96109.13
2022-10-14T04:02:12.099Z,96091.00
2022-10-14T04:04:41.980Z,96063.50
2022-10-14T04:07:11.395Z,96096.97
2022-10-14T04:09:40.618Z,96118.03
2022-10-14T04:12:09.867Z,96109.03
2022-10-14T04:14:49.657Z,96106.41
2022-10-14T04:17:17.650Z,96102.69
2022-10-14T04:19:45.727Z,96099.25
2022-10-14T04:22:18.091Z,96097.72
2022-10-14T04:24:50.625Z,96004.59
2022-10-14T04:27:18.514Z,96103.72
2022-10-14T04:29:51.206Z,96101.59
2022-10-14T04:32:26.240Z,96091.34
2022-10-14T04:34:54.942Z,96087.84
2022-10-14T04:37:26.737Z,96091.41
2022-10-14T04:40:03.410Z,96066.41
2022-10-14T04:42:32.298Z,96077.13
2022-10-14T04:45:04.338Z,96004.47
2022-10-14T04:47:48.477Z,96084.63
2022-10-14T04:50:19.844Z,96080.91
2022-10-14T04:53:13.099Z,96079.41
2022-10-14T04:55:51.596Z,96051.13
2022-10-14T04:58:19.571Z,96073.91
2022-10-14T05:00:48.827Z,96038.31
2022-10-14T05:03:49.225Z,96062.69
2022-10-14T05:06:18.116Z,96070.56
2022-10-14T05:08:48.886Z,96072.16
2022-10-14T05:11:16.851Z,96057.06
2022-10-14T05:13:51.772Z,96024.19
2022-10-14T05:16:19.620Z,96066.56
2022-10-14T05:18:47.275Z,95982.19
2022-10-14T05:21:15.389Z,96025.97
2022-10-14T05:24:08.005Z,96063.16
2022-10-14T05:26:38.671Z,96062.44
2022-10-14T05:29:11.463Z,96054.19
2022-10-14T05:31:40.533Z,96058.06
2022-10-14T05:34:20.902Z,96063.34
2022-10-14T05:36:48.650Z,96046.56
2022-10-14T05:39:18.787Z,96058.94
2022-10-14T05:41:46.668Z,96052.56
2022-10-14T05:44:18.106Z,96057.06
2022-10-14T05:46:47.098Z,96055.22
2022-10-14T05:49:15.909Z,96053.66
2022-10-14T05:51:44.753Z,96060.47
2022-10-14T05:54:21.097Z,96052.41
2022-10-14T05:56:51.888Z,96055.63
2022-10-14T05:59:20.310Z,96050.34
2022-10-14T06:01:48.134Z,96047.97
2022-10-14T06:04:18.339Z,96050.88
2022-10-14T06:06:46.163Z,96042.69
2022-10-14T06:09:16.010Z,96040.53
2022-10-14T06:11:45.625Z,96046.81
2022-10-14T06:14:13.618Z,95994.13
2022-10-14T06:16:41.743Z,96050.75
2022-10-14T06:19:09.571Z,96038.63
2022-10-14T06:21:37.882Z,96035.16
2022-10-14T06:24:05.869Z,96041.19
2022-10-14T06:26:33.591Z,96034.19
2022-10-14T06:29:02.692Z,96033.69
2022-10-14T06:31:32.495Z,96041.53
2022-10-14T06:34:00.593Z,96037.31
2022-10-14T06:36:28.279Z,96026.97
2022-10-14T06:38:56.029Z,96042.13
2022-10-14T06:41:24.206Z,96043.19
2022-10-14T06:43:51.903Z,95950.50
2022-10-14T06:46:20.991Z,96027.09
2022-10-14T06:48:50.433Z,96000.38
2022-10-14T06:51:18.336Z,96049.91
2022-10-14T06:53:46.112Z,96052.56
2022-10-14T06:56:13.909Z,96051.50
2022-10-14T06:58:41.636Z,96040.91
2022-10-14T07:01:10.047Z,96045.13
2022-10-14T07:03:40.054Z,96048.75
2022-10-14T07:06:09.075Z,96030.81
2022-10-14T07:08:36.782Z,96042.59
2022-10-14T07:11:04.976Z,96038.47
2022-10-14T07:13:34.161Z,96035.63
2022-10-14T07:16:02.165Z,96032.72
2022-10-14T07:18:29.822Z,95958.78
2022-10-14T07:21:02.894Z,96038.94
2022-10-14T07:23:30.549Z,95910.38
2022-10-14T07:25:58.228Z,96019.72
2022-10-14T07:28:26.186Z,96013.22
2022-10-14T07:31:01.859Z,95971.63
2022-10-14T07:33:29.839Z,95920.03
2022-10-14T07:36:01.929Z,96027.41
2022-10-14T07:38:29.901Z,96024.09
2022-10-14T07:40:59.541Z,96027.03
2022-10-14T07:43:27.263Z,95945.94
2022-10-14T07:46:00.379Z,96026.13
2022-10-14T07:48:33.004Z,96031.59
2022-10-14T07:51:14.172Z,96027.06
2022-10-14T07:53:41.867Z,96025.16
2022-10-14T07:56:09.815Z,95961.06
2022-10-14T07:58:41.040Z,96035.25
2022-10-14T08:01:12.088Z,96037.63
2022-10-14T08:03:39.848Z,95981.03
2022-10-14T08:06:07.898Z,96034.75
2022-10-14T08:08:37.262Z,96044.34
2022-10-14T08:11:07.683Z,96034.31
2022-10-14T08:13:36.267Z,96032.81
2022-10-14T08:16:04.510Z,96001.31
2022-10-14T08:18:32.206Z,96020.66
2022-10-14T08:20:59.845Z,96024.72
2022-10-14T08:23:27.503Z,96014.78
2022-10-14T08:25:56.506Z,96025.81
2022-10-14T08:28:24.201Z,96036.06
2022-10-14T08:30:52.807Z,96025.41
2022-10-14T08:33:20.758Z,96033.94
2022-10-14T08:35:53.117Z,96027.44
2022-10-14T08:38:25.113Z,96028.53
2022-10-14T08:41:04.093Z,96032.69
2022-10-14T08:43:37.205Z,96029.38
2022-10-14T08:46:14.734Z,96034.88
2022-10-14T08:48:42.724Z,96026.66
2022-10-14T08:51:14.847Z,96027.03
2022-10-14T08:53:46.921Z,96027.03
2022-10-14T08:56:16.860Z,96021.50
2022-10-14T08:58:48.347Z,96021.22
2022-10-14T09:01:20.561Z,96017.25
2022-10-14T09:03:48.453Z,96018.09
2022-10-14T09:06:23.457Z,96023.47
2022-10-14T09:08:53.839Z,96022.69
2022-10-14T09:11:25.093Z,96017.84
2022-10-14T09:13:55.551Z,95942.66
2022-10-14T09:16:26.190Z,96022.69
2022-10-14T09:18:56.581Z,96022.19
2022-10-14T09:21:51.851Z,96023.16
2022-10-14T09:24:22.113Z,96011.81
2022-10-14T09:26:55.048Z,96016.53
2022-10-14T09:29:27.150Z,96010.78
2022-10-14T09:31:58.344Z,96010.94
2022-10-14T09:34:31.221Z,95988.22
2022-10-14T09:37:07.439Z,96007.84
2022-10-14T09:39:39.935Z,95984.22
2022-10-14T09:42:16.450Z,96013.06
2022-10-14T09:44:44.094Z,96005.28
2022-10-14T09:47:16.162Z,96001.53
2022-10-14T09:49:47.370Z,95993.72
2022-10-14T09:52:23.913Z,95994.47
2022-10-14T09:54:56.162Z,95987.88
2022-10-14T09:57:26.577Z,95996.50
2022-10-14T09:59:57.481Z,95990.72
2022-10-14T10:02:35.784Z,95964.22
2022-10-14T10:05:13.183Z,95959.72
2022-10-14T10:07:40.854Z,95998.72
2022-10-14T10:10:19.582Z,95990.47
2022-10-14T10:12:48.752Z,95993.47
2022-10-14T10:15:21.166Z,95986.72
2022-10-14T10:17:50.187Z,95991.59
2022-10-14T10:20:28.309Z,95987.53
2022-10-14T10:22:56.706Z,95957.03
2022-10-14T10:25:27.975Z,95983.50
2022-10-14T10:28:01.185Z,95975.81
2022-10-14T10:30:32.226Z,95976.72
2022-10-14T10:33:25.886Z,95977.78
2022-10-14T10:36:06.986Z,95972.78
2022-10-14T10:38:45.410Z,95962.13
2022-10-14T10:41:30.629Z,95956.56
2022-10-14T10:44:15.045Z,95851.13
2022-10-14T10:47:16.133Z,95954.97
2022-10-14T10:50:00.696Z,95947.94
2022-10-14T10:52:42.664Z,95949.53
2022-10-14T10:55:19.307Z,95938.09
2022-10-14T10:58:02.557Z,95942.00
2022-10-14T11:00:44.008Z,95947.31
2022-10-14T11:03:29.137Z,95943.69
2022-10-14T11:06:03.885Z,95946.47
2022-10-14T11:09:03.013Z,95932.50
2022-10-14T11:11:52.332Z,95929.06
2022-10-14T11:14:38.770Z,95925.94
2022-10-14T11:17:15.600Z,95934.28
2022-10-14T11:19:53.768Z,95926.19
2022-10-14T11:22:50.772Z,95918.03
2022-10-14T11:25:25.957Z,95910.50
2022-10-14T11:28:03.363Z,95892.97
2022-10-14T11:30:43.333Z,95908.38
2022-10-14T11:33:29.301Z,95893.84
2022-10-14T11:36:08.130Z,95835.91
2022-10-14T11:38:53.898Z,95889.50
2022-10-14T11:41:30.359Z,95883.88
2022-10-14T11:44:03.273Z,95881.53
2022-10-14T11:46:36.810Z,95877.44
2022-10-14T11:49:15.171Z,95873.34
2022-10-14T11:51:48.519Z,95881.78
2022-10-14T11:54:21.230Z,95875.53
2022-10-14T11:56:53.797Z,95872.59
2022-10-14T11:59:40.337Z,95746.19
2022-10-14T12:02:34.583Z,95867.75
2022-10-14T12:05:16.074Z,95862.31
2022-10-14T12:07:51.158Z,95865.88
2022-10-14T12:10:26.800Z,95866.97
2022-10-14T12:12:56.669Z,95867.91
2022-10-14T12:15:26.857Z,95853.38
2022-10-14T12:17:57.727Z,95850.56
2022-10-14T12:20:35.288Z,95856.44
2022-10-14T12:23:06.142Z,95827.53
2022-10-14T12:25:39.903Z,95855.63
2022-10-14T12:28:08.960Z,95839.22
2022-10-14T12:30:39.300Z,95844.06
2022-10-14T12:33:09.014Z,95736.09
2022-10-14T12:35:50.128Z,95835.88
2022-10-14T12:38:20.123Z,95808.56
2022-10-14T12:40:49.236Z,95822.94
2022-10-14T12:43:21.537Z,95824.19
2022-10-14T12:45:55.609Z,95832.16
2022-10-14T12:48:25.266Z,95835.88
2022-10-14T12:51:06.727Z,95824.31
2022-10-14T12:53:35.579Z,95827.63
2022-10-14T12:56:05.537Z,95826.31
2022-10-14T12:58:37.193Z,95822.59
2022-10-14T13:01:08.646Z,95812.00
2022-10-14T13:03:44.056Z,95813.75
2022-10-14T13:06:39.873Z,95793.59
2022-10-14T13:09:35.942Z,95820.28
2022-10-14T13:12:36.435Z,95819.72
2022-10-14T13:15:06.246Z,95811.13
2022-10-14T13:17:45.760Z,95818.13
2022-10-14T13:20:52.393Z,95809.19
2022-10-14T13:23:37.691Z,95827.00
2022-10-14T13:26:25.029Z,95806.78
2022-10-14T13:29:05.975Z,95814.16
2022-10-14T13:31:40.633Z,95729.16
2022-10-14T13:34:19.863Z,95813.06
2022-10-14T13:37:02.617Z,95721.88
2022-10-14T13:39:34.761Z,95804.22
2022-10-14T13:42:03.726Z,95797.53
2022-10-14T13:44:31.470Z,95771.88
2022-10-14T13:47:02.405Z,95816.47
2022-10-14T13:49:35.831Z,95822.75
2022-10-14T13:52:06.593Z,95800.38
2022-10-14T13:54:35.609Z,95811.50
2022-10-14T13:57:42.742Z,95815.72
2022-10-14T14:00:41.089Z,95818.38
2022-10-14T14:02:48.998Z,95840.28
2022-10-14T14:05:27.225Z,95819.13
2022-10-14T14:11:15.117Z,95844.53
2022-10-14T14:13:53.430Z,95818.94
2022-10-14T14:16:26.419Z,95860.19
2022-10-14T14:19:07.954Z,95857.84
2022-10-14T14:21:36.395Z,95857.38
2022-10-14T14:24:16.421Z,95855.47
2022-10-14T14:26:54.755Z,95852.00
2022-10-14T14:29:28.769Z,95749.63
2022-10-14T14:32:07.071Z,95840.66
2022-10-14T14:34:36.759Z,95851.34
2022-10-14T14:37:43.532Z,95849.44
2022-10-14T14:39:59.514Z,95845.34
2022-10-14T14:42:33.376Z,95816.66
2022-10-14T14:45:05.498Z,95819.84
2022-10-14T14:47:34.248Z,95832.97
2022-10-14T14:50:29.120Z,95804.84
2022-10-14T14:52:52.601Z,95787.13
2022-10-14T14:55:41.499Z,95822.00
2022-10-14T14:58:25.724Z,95815.56
2022-10-14T15:00:55.998Z,95763.41
2022-10-14T15:03:24.807Z,95820.84
2022-10-14T15:05:56.858Z,95818.53
2022-10-14T15:08:28.719Z,95786.25
2022-10-14T15:10:58.178Z,95813.66
2022-10-14T15:13:48.672Z,95817.88
2022-10-14T15:16:37.874Z,95809.44
2022-10-14T15:19:14.892Z,95804.47
2022-10-14T15:21:47.299Z,95805.72
2022-10-14T15:24:18.469Z,95808.09
2022-10-14T15:26:46.253Z,95800.56
2022-10-14T15:32:07.612Z,95786.50
2022-10-14T15:34:37.344Z,95794.47
2022-10-14T15:37:05.062Z,95781.03
2022-10-14T15:39:32.771Z,95789.63
2022-10-14T15:42:01.674Z,95668.72
2022-10-14T15:44:31.060Z,95779.66
2022-10-14T15:47:16.434Z,95691.88
2022-10-14T15:49:46.875Z,95765.09
2022-10-14T15:52:16.423Z,95777.16
2022-10-14T15:54:45.799Z,95769.81
2022-10-14T15:57:16.700Z,95769.03
2022-10-14T15:59:50.745Z,95769.41
2022-10-14T16:02:24.120Z,95760.00
2022-10-14T16:05:19.285Z,95763.56
2022-10-14T16:07:40.821Z,95751.19
2022-10-14T16:10:09.900Z,95758.56
2022-10-14T16:12:37.588Z,95763.38
2022-10-14T16:15:31.948Z,95765.91
2022-10-14T16:17:59.650Z,95729.31
2022-10-14T16:20:27.375Z,95729.78
2022-10-14T16:22:55.286Z,95762.63
2022-10-14T16:25:26.155Z,95766.09
2022-10-14T16:27:53.832Z,95731.03
2022-10-14T16:30:23.017Z,95730.28
2022-10-14T16:32:51.302Z,95762.63
2022-10-14T16:35:19.207Z,95765.09
2022-10-14T16:37:46.964Z,95771.34
2022-10-14T16:40:14.715Z,95763.53
2022-10-14T16:42:42.532Z,95765.09
2022-10-14T16:45:10.992Z,95768.22
2022-10-14T16:47:40.713Z,95773.97
2022-10-14T16:50:10.229Z,95775.25
2022-10-14T16:52:52.228Z,95771.84
2022-10-14T16:55:20.141Z,95741.44
2022-10-14T16:57:48.359Z,95768.69
2022-10-14T17:02:47.828Z,95775.91
2022-10-14T17:05:16.150Z,95766.03
2022-10-14T17:07:44.469Z,95758.22
2022-10-14T17:10:12.644Z,95765.25
2022-10-14T17:12:40.980Z,95765.88
2022-10-14T17:15:09.413Z,95711.84
2022-10-14T17:17:40.567Z,95765.06
2022-10-14T17:20:10.642Z,95765.06
2022-10-14T17:22:38.314Z,95764.88
2022-10-14T17:25:08.350Z,95773.28
2022-10-14T17:27:36.048Z,95773.41
2022-10-14T17:30:03.770Z,95768.53
2022-10-14T17:32:31.428Z,95763.84
2022-10-14T17:34:59.086Z,95775.88
2022-10-14T17:37:28.302Z,95777.59
2022-10-14T17:39:55.987Z,95767.56
2022-10-14T17:42:24.004Z,95771.00
2022-10-14T17:44:53.261Z,95772.41
2022-10-14T17:47:21.165Z,95775.84
2022-10-14T17:49:50.348Z,95763.84
2022-10-14T17:52:18.035Z,95773.50
2022-10-14T17:54:47.269Z,95767.22
2022-10-14T17:57:19.473Z,95762.84
2022-10-14T17:59:47.571Z,95769.16
2022-10-14T18:02:18.390Z,95764.97
2022-10-14T18:04:46.177Z,95765.91
2022-10-14T18:07:13.846Z,95765.41
2022-10-14T18:09:43.386Z,95693.63
2022-10-14T18:12:12.420Z,95758.22
2022-10-14T18:14:40.702Z,95727.25
2022-10-14T18:17:10.730Z,95762.00
2022-10-14T18:19:39.039Z,95764.19
2022-10-14T18:22:07.257Z,95760.13
2022-10-14T18:24:38.419Z,95763.19
2022-10-14T18:27:06.652Z,95687.25
2022-10-14T18:29:35.827Z,95766.00
2022-10-14T18:32:03.850Z,95740.31
2022-10-14T18:34:32.006Z,95765.53
2022-10-14T18:36:59.715Z,95762.25
2022-10-14T18:39:27.635Z,95762.59
2022-10-14T18:41:55.386Z,95761.31
2022-10-14T18:44:23.286Z,95767.41
2022-10-14T18:46:52.439Z,95761.06
2022-10-14T18:49:20.302Z,95749.50
2022-10-14T18:51:48.005Z,95744.03
2022-10-14T18:54:17.568Z,95737.34
2022-10-14T18:56:46.052Z,95738.28
2022-10-14T18:59:16.020Z,95736.06
2022-10-14T19:01:43.789Z,95743.44
2022-10-14T19:04:15.226Z,95755.91
2022-10-14T19:06:46.981Z,95723.94
2022-10-14T19:09:14.814Z,95749.16
2022-10-14T19:11:42.908Z,95742.91
2022-10-14T19:14:10.788Z,95736.47
2022-10-14T19:16:39.657Z,95748.38
2022-10-14T19:19:11.595Z,95731.97
2022-10-14T19:21:40.930Z,95733.03
2022-10-14T19:24:09.112Z,95738.50
2022-10-14T19:26:38.605Z,95702.44
2022-10-14T19:29:10.519Z,95736.63
2022-10-14T19:31:41.252Z,95718.16
2022-10-14T19:34:11.653Z,95726.81
2022-10-14T19:36:41.101Z,95727.78
2022-10-14T19:39:11.156Z,95726.19
2022-10-14T19:41:42.879Z,95717.00
2022-10-14T19:44:11.662Z,95665.91
2022-10-14T19:46:40.071Z,95709.53
2022-10-14T19:49:07.801Z,95691.22
2022-10-14T19:51:36.033Z,95707.16
2022-10-14T19:54:05.347Z,95708.72
2022-10-14T19:56:33.060Z,95707.00
2022-10-14T19:59:01.714Z,95665.63
2022-10-14T20:01:32.613Z,95687.75
2022-10-14T20:04:01.945Z,95690.56
2022-10-14T20:06:32.707Z,95700.13
2022-10-14T20:09:00.492Z,95705.03
2022-10-14T20:11:29.746Z,95674.75
2022-10-14T20:13:57.456Z,95696.66
2022-10-14T20:16:26.291Z,95702.78
2022-10-14T20:18:53.938Z,95705.13
2022-10-14T20:21:21.602Z,95657.13
2022-10-14T20:23:49.226Z,95705.41
2022-10-14T20:26:19.691Z,95685.09
2022-10-14T20:28:49.262Z,95698.09
2022-10-14T20:31:18.487Z,95702.91
2022-10-14T20:33:46.550Z,95699.59
2022-10-14T20:36:16.987Z,95699.13
2022-10-14T20:38:45.437Z,95699.59
2022-10-14T20:41:15.158Z,95703.97
2022-10-14T20:43:44.084Z,95697.25
2022-10-14T20:46:13.693Z,95687.41
2022-10-14T20:48:41.637Z,95686.84
2022-10-14T20:51:11.730Z,95689.00
2022-10-14T20:56:13.912Z,95676.38
2022-10-14T20:58:42.200Z,95681.53
2022-10-14T21:01:12.693Z,95668.38
2022-10-14T21:03:46.568Z,95673.41
2022-10-14T21:06:16.483Z,95662.75
2022-10-14T21:08:44.595Z,95664.94
2022-10-14T21:11:15.288Z,95674.19
2022-10-14T21:13:45.581Z,95667.00
2022-10-14T21:16:16.397Z,95654.84
2022-10-14T21:18:52.411Z,95655.19
2022-10-14T21:21:23.592Z,95650.19
2022-10-14T21:23:52.272Z,95638.69
2022-10-14T21:26:19.965Z,95640.56
2022-10-14T21:28:47.662Z,95562.69
2022-10-14T21:31:18.923Z,95635.84
2022-10-14T21:33:49.119Z,95627.41
2022-10-14T21:36:17.803Z,95627.25
2022-10-14T21:38:45.668Z,95606.25
2022-10-14T21:41:13.460Z,95622.75
2022-10-14T21:43:41.511Z,95520.81
2022-10-14T21:46:11.827Z,95602.28
2022-10-14T21:48:40.174Z,95617.16
2022-10-14T21:51:11.684Z,95619.81
2022-10-14T21:53:41.289Z,95612.78
2022-10-14T21:56:09.993Z,95607.63
2022-10-14T21:58:37.785Z,95608.13
2022-10-14T22:01:07.974Z,95604.38
2022-10-14T22:03:36.518Z,95597.06
2022-10-14T22:06:06.667Z,95600.00
2022-10-14T22:08:37.408Z,95595.44
2022-10-14T22:11:06.676Z,95591.88
2022-10-14T22:13:36.046Z,95589.69
2022-10-14T22:16:03.706Z,95588.13
2022-10-14T22:18:31.402Z,95593.41
2022-10-14T22:21:05.221Z,95591.88
2022-10-14T22:23:33.341Z,95589.06
2022-10-14T22:26:04.428Z,95587.38
2022-10-14T22:28:33.407Z,95521.44
2022-10-14T22:31:05.239Z,95588.03
2022-10-14T22:33:35.026Z,95588.78
2022-10-14T22:36:07.395Z,95582.41
2022-10-14T22:38:35.178Z,95568.69
2022-10-14T22:41:05.218Z,95573.66
2022-10-14T22:43:32.999Z,95569.91
2022-10-14T22:46:01.812Z,95573.78
2022-10-14T22:48:29.685Z,95562.31
2022-10-14T22:50:57.394Z,95535.50
2022-10-14T22:53:25.234Z,95569.56
2022-10-14T22:55:53.225Z,95490.97
2022-10-14T22:58:22.551Z,95436.94
2022-10-14T23:00:50.230Z,95564.25
2022-10-14T23:03:17.957Z,95553.66
2022-10-14T23:05:45.697Z,95555.22
2022-10-14T23:08:14.831Z,95557.56
2022-10-14T23:10:43.205Z,95552.09
2022-10-14T23:13:11.475Z,95545.88
2022-10-14T23:15:40.513Z,95543.84
2022-10-14T23:18:08.193Z,95539.47
2022-10-14T23:20:37.084Z,95489.31
2022-10-14T23:23:04.744Z,95519.72
2022-10-14T23:25:32.409Z,95548.19
2022-10-14T23:28:00.208Z,95534.09
2022-10-14T23:30:27.974Z,95541.13
2022-10-14T23:32:57.000Z,95434.28
2022-10-14T23:35:24.650Z,95537.66
2022-10-14T23:37:52.438Z,95540.16
2022-10-14T23:40:20.190Z,95546.84
2022-10-14T23:42:47.885Z,95518.75
2022-10-14T23:45:15.673Z,95529.94
2022-10-14T23:47:43.348Z,95393.09
2022-10-14T23:50:12.551Z,95509.44
2022-10-14T23:52:40.321Z,95398.47
2022-10-14T23:55:08.864Z,95512.72
2022-10-14T23:57:36.565Z,95499.22
